sensor_id;sensor_type;location;lat;lon;timestamp;temperature;humidity
5494;DHT22;2769;49.864;8.656;2022-09-13T00:00:53;20.40;99.90
5494;DHT22;2769;49.864;8.656;2022-09-13T00:03:21;20.30;99.90
5494;DHT22;2769;49.864;8.656;2022-09-13T00:05:49;20.70;99.90
5494;DHT22;2769;49.864;8.656;2022-09-13T00:08:18;21.00;99.90
5494;DHT22;2769;49.864;8.656;2022-09-13T00:10:47;20.00;99.90
5494;DHT22;2769;49.864;8.656;2022-09-13T00:13:16;20.00;99.90
5494;DHT22;2769;49.864;8.656;2022-09-13T00:15:46;19.80;99.90
5494;DHT22;2769;49.864;8.656;2022-09-13T00:18:17;20.00;99.90
5494;DHT22;2769;49.864;8.656;2022-09-13T00:20:45;19.90;99.90
5494;DHT22;2769;49.864;8.656;2022-09-13T00:23:13;20.80;99.90
5494;DHT22;2769;49.864;8.656;2022-09-13T00:25:41;19.90;99.90
5494;DHT22;2769;49.864;8.656;2022-09-13T00:28:09;19.90;99.90
5494;DHT22;2769;49.864;8.656;2022-09-13T00:30:37;19.90;99.90
5494;DHT22;2769;49.864;8.656;2022-09-13T00:33:05;20.00;99.90
5494;DHT22;2769;49.864;8.656;2022-09-13T00:35:35;20.00;99.90
5494;DHT22;2769;49.864;8.656;2022-09-13T00:38:03;20.10;99.90
5494;DHT22;2769;49.864;8.656;2022-09-13T00:40:36;20.80;99.90
5494;DHT22;2769;49.864;8.656;2022-09-13T00:43:08;19.80;99.90
5494;DHT22;2769;49.864;8.656;2022-09-13T00:45:39;20.40;99.90
5494;DHT22;2769;49.864;8.656;2022-09-13T00:48:07;19.60;99.90
5494;DHT22;2769;49.864;8.656;2022-09-13T00:50:44;19.30;99.90
5494;DHT22;2769;49.864;8.656;2022-09-13T00:53:15;19.40;99.90
5494;DHT22;2769;49.864;8.656;2022-09-13T00:55:48;19.80;99.90
5494;DHT22;2769;49.864;8.656;2022-09-13T00:58:20;20.50;99.90
5494;DHT22;2769;49.864;8.656;2022-09-13T01:00:49;19.90;99.90
5494;DHT22;2769;49.864;8.656;2022-09-13T01:03:19;19.90;99.90
5494;DHT22;2769;49.864;8.656;2022-09-13T01:05:54;20.20;99.90
5494;DHT22;2769;49.864;8.656;2022-09-13T01:08:23;19.90;99.90
5494;DHT22;2769;49.864;8.656;2022-09-13T01:10:51;19.90;99.90
5494;DHT22;2769;49.864;8.656;2022-09-13T01:13:22;20.10;99.90
5494;DHT22;2769;49.864;8.656;2022-09-13T01:15:51;19.90;99.90
5494;DHT22;2769;49.864;8.656;2022-09-13T01:18:19;20.60;99.90
5494;DHT22;2769;49.864;8.656;2022-09-13T01:21:16;19.80;99.90
5494;DHT22;2769;49.864;8.656;2022-09-13T01:27:14;19.50;99.90
5494;DHT22;2769;49.864;8.656;2022-09-13T01:30:16;19.70;99.90
5494;DHT22;2769;49.864;8.656;2022-09-13T01:33:03;19.50;99.90
5494;DHT22;2769;49.864;8.656;2022-09-13T01:35:57;20.10;99.90
5494;DHT22;2769;49.864;8.656;2022-09-13T01:38:48;19.50;99.90
5494;DHT22;2769;49.864;8.656;2022-09-13T01:41:40;19.50;99.90
5494;DHT22;2769;49.864;8.656;2022-09-13T01:44:20;19.40;99.90
5494;DHT22;2769;49.864;8.656;2022-09-13T01:47:01;19.30;99.90
5494;DHT22;2769;49.864;8.656;2022-09-13T01:49:35;19.80;99.90
5494;DHT22;2769;49.864;8.656;2022-09-13T01:52:09;19.20;99.90
5494;DHT22;2769;49.864;8.656;2022-09-13T01:54:47;19.30;99.90
5494;DHT22;2769;49.864;8.656;2022-09-13T01:57:22;19.00;99.90
5494;DHT22;2769;49.864;8.656;2022-09-13T01:59:55;18.90;99.90
5494;DHT22;2769;49.864;8.656;2022-09-13T02:02:31;18.80;99.90
5494;DHT22;2769;49.864;8.656;2022-09-13T02:05:13;19.40;99.90
5494;DHT22;2769;49.864;8.656;2022-09-13T02:07:48;18.80;99.90
5494;DHT22;2769;49.864;8.656;2022-09-13T02:10:23;18.70;99.90
5494;DHT22;2769;49.864;8.656;2022-09-13T02:12:53;18.50;99.90
5494;DHT22;2769;49.864;8.656;2022-09-13T02:15:25;18.40;99.90
5494;DHT22;2769;49.864;8.656;2022-09-13T02:18:02;18.90;99.90
5494;DHT22;2769;49.864;8.656;2022-09-13T02:20:34;19.00;99.90
5494;DHT22;2769;49.864;8.656;2022-09-13T02:23:07;18.90;99.90
5494;DHT22;2769;49.864;8.656;2022-09-13T02:25:38;19.50;99.90
5494;DHT22;2769;49.864;8.656;2022-09-13T02:28:10;19.00;99.90
5494;DHT22;2769;49.864;8.656;2022-09-13T02:30:43;19.10;99.90
5494;DHT22;2769;49.864;8.656;2022-09-13T02:33:16;19.20;99.90
5494;DHT22;2769;49.864;8.656;2022-09-13T02:35:50;19.20;99.90
5494;DHT22;2769;49.864;8.656;2022-09-13T02:38:22;19.00;99.90
5494;DHT22;2769;49.864;8.656;2022-09-13T02:40:55;19.00;99.90
5494;DHT22;2769;49.864;8.656;2022-09-13T02:43:26;18.90;99.90
5494;DHT22;2769;49.864;8.656;2022-09-13T02:46:08;19.20;99.90
5494;DHT22;2769;49.864;8.656;2022-09-13T02:48:48;19.60;99.90
5494;DHT22;2769;49.864;8.656;2022-09-13T02:51:23;18.80;99.90
5494;DHT22;2769;49.864;8.656;2022-09-13T02:54:00;18.80;99.90
5494;DHT22;2769;49.864;8.656;2022-09-13T02:56:39;18.80;99.90
5494;DHT22;2769;49.864;8.656;2022-09-13T02:59:12;18.70;99.90
5494;DHT22;2769;49.864;8.656;2022-09-13T03:01:44;18.70;99.90
5494;DHT22;2769;49.864;8.656;2022-09-13T03:04:15;18.70;99.90
5494;DHT22;2769;49.864;8.656;2022-09-13T03:06:43;19.30;99.90
5494;DHT22;2769;49.864;8.656;2022-09-13T03:09:11;18.80;99.90
5494;DHT22;2769;49.864;8.656;2022-09-13T03:11:58;18.70;99.90
5494;DHT22;2769;49.864;8.656;2022-09-13T03:14:39;18.70;99.90
5494;DHT22;2769;49.864;8.656;2022-09-13T03:17:18;18.80;99.90
5494;DHT22;2769;49.864;8.656;2022-09-13T03:20:02;18.90;99.90
5494;DHT22;2769;49.864;8.656;2022-09-13T03:22:51;19.00;99.90
5494;DHT22;2769;49.864;8.656;2022-09-13T03:25:30;19.00;99.90
5494;DHT22;2769;49.864;8.656;2022-09-13T03:28:12;19.00;99.90
5494;DHT22;2769;49.864;8.656;2022-09-13T03:30:47;19.10;99.90
5494;DHT22;2769;49.864;8.656;2022-09-13T03:33:24;19.10;99.90
5494;DHT22;2769;49.864;8.656;2022-09-13T03:36:02;19.10;99.90
5494;DHT22;2769;49.864;8.656;2022-09-13T03:38:37;19.40;99.90
5494;DHT22;2769;49.864;8.656;2022-09-13T03:41:09;19.40;99.90
5494;DHT22;2769;49.864;8.656;2022-09-13T03:43:43;19.00;99.90
5494;DHT22;2769;49.864;8.656;2022-09-13T03:46:14;19.10;99.90
5494;DHT22;2769;49.864;8.656;2022-09-13T03:48:44;19.60;99.90
5494;DHT22;2769;49.864;8.656;2022-09-13T03:51:14;19.40;99.90
5494;DHT22;2769;49.864;8.656;2022-09-13T03:53:47;19.30;99.90
5494;DHT22;2769;49.864;8.656;2022-09-13T03:56:19;19.40;99.90
5494;DHT22;2769;49.864;8.656;2022-09-13T03:58:47;19.40;99.90
5494;DHT22;2769;49.864;8.656;2022-09-13T04:01:18;19.40;99.90
5494;DHT22;2769;49.864;8.656;2022-09-13T04:03:47;19.50;99.90
5494;DHT22;2769;49.864;8.656;2022-09-13T04:06:21;19.50;99.90
5494;DHT22;2769;49.864;8.656;2022-09-13T04:08:49;19.50;99.90
5494;DHT22;2769;49.864;8.656;2022-09-13T04:11:17;19.50;99.90
5494;DHT22;2769;49.864;8.656;2022-09-13T04:13:47;19.40;99.90
5494;DHT22;2769;49.864;8.656;2022-09-13T04:16:15;19.30;99.90
5494;DHT22;2769;49.864;8.656;2022-09-13T04:18:43;19.40;99.90
5494;DHT22;2769;49.864;8.656;2022-09-13T04:21:11;19.50;99.90
5494;DHT22;2769;49.864;8.656;2022-09-13T04:23:40;19.40;99.90
5494;DHT22;2769;49.864;8.656;2022-09-13T04:26:08;19.40;99.90
5494;DHT22;2769;49.864;8.656;2022-09-13T04:28:37;19.90;99.90
5494;DHT22;2769;49.864;8.656;2022-09-13T04:31:05;19.30;99.90
5494;DHT22;2769;49.864;8.656;2022-09-13T04:33:32;19.70;99.90
5494;DHT22;2769;49.864;8.656;2022-09-13T04:36:02;19.30;99.90
5494;DHT22;2769;49.864;8.656;2022-09-13T04:38:30;19.30;99.90
5494;DHT22;2769;49.864;8.656;2022-09-13T04:40:59;19.20;99.90
5494;DHT22;2769;49.864;8.656;2022-09-13T04:43:27;19.30;99.90
5494;DHT22;2769;49.864;8.656;2022-09-13T04:45:58;19.40;99.90
5494;DHT22;2769;49.864;8.656;2022-09-13T04:48:28;20.00;99.90
5494;DHT22;2769;49.864;8.656;2022-09-13T04:51:00;19.40;99.90
5494;DHT22;2769;49.864;8.656;2022-09-13T04:53:30;19.40;99.90
5494;DHT22;2769;49.864;8.656;2022-09-13T04:56:01;19.40;99.90
5494;DHT22;2769;49.864;8.656;2022-09-13T04:58:29;19.40;99.90
5494;DHT22;2769;49.864;8.656;2022-09-13T05:01:00;19.40;99.90
5494;DHT22;2769;49.864;8.656;2022-09-13T05:03:29;19.30;99.90
5494;DHT22;2769;49.864;8.656;2022-09-13T05:06:01;19.10;99.90
5494;DHT22;2769;49.864;8.656;2022-09-13T05:08:30;19.70;99.90
5494;DHT22;2769;49.864;8.656;2022-09-13T05:10:58;19.20;99.90
5494;DHT22;2769;49.864;8.656;2022-09-13T05:13:28;19.40;99.90
5494;DHT22;2769;49.864;8.656;2022-09-13T05:15:56;19.60;99.90
5494;DHT22;2769;49.864;8.656;2022-09-13T05:18:25;19.90;99.90
5494;DHT22;2769;49.864;8.656;2022-09-13T05:20:53;19.40;99.90
5494;DHT22;2769;49.864;8.656;2022-09-13T05:23:22;19.30;99.90
5494;DHT22;2769;49.864;8.656;2022-09-13T05:25:53;19.30;99.90
5494;DHT22;2769;49.864;8.656;2022-09-13T05:28:28;19.30;99.90
5494;DHT22;2769;49.864;8.656;2022-09-13T05:30:57;19.30;99.90
5494;DHT22;2769;49.864;8.656;2022-09-13T05:33:27;19.40;99.90
5494;DHT22;2769;49.864;8.656;2022-09-13T05:35:55;19.50;99.90
5494;DHT22;2769;49.864;8.656;2022-09-13T05:38:24;19.60;99.90
5494;DHT22;2769;49.864;8.656;2022-09-13T05:40:53;19.70;99.90
5494;DHT22;2769;49.864;8.656;2022-09-13T05:43:23;19.70;99.90
5494;DHT22;2769;49.864;8.656;2022-09-13T05:46:01;19.60;99.90
5494;DHT22;2769;49.864;8.656;2022-09-13T05:48:30;19.70;99.90
5494;DHT22;2769;49.864;8.656;2022-09-13T05:51:04;19.60;99.90
5494;DHT22;2769;49.864;8.656;2022-09-13T05:53:32;19.80;99.90
5494;DHT22;2769;49.864;8.656;2022-09-13T05:56:01;19.70;99.90
5494;DHT22;2769;49.864;8.656;2022-09-13T05:58:29;19.80;99.90
5494;DHT22;2769;49.864;8.656;2022-09-13T06:00:57;19.60;99.90
5494;DHT22;2769;49.864;8.656;2022-09-13T06:03:26;19.70;99.90
5494;DHT22;2769;49.864;8.656;2022-09-13T06:05:55;19.70;99.90
5494;DHT22;2769;49.864;8.656;2022-09-13T06:08:25;19.60;99.90
5494;DHT22;2769;49.864;8.656;2022-09-13T06:10:54;19.80;99.90
5494;DHT22;2769;49.864;8.656;2022-09-13T06:13:24;19.80;99.90
5494;DHT22;2769;49.864;8.656;2022-09-13T06:15:53;19.70;99.90
5494;DHT22;2769;49.864;8.656;2022-09-13T06:18:21;20.50;99.90
5494;DHT22;2769;49.864;8.656;2022-09-13T06:20:56;19.80;99.90
5494;DHT22;2769;49.864;8.656;2022-09-13T06:23:25;19.60;99.90
5494;DHT22;2769;49.864;8.656;2022-09-13T06:26:00;19.80;99.90
5494;DHT22;2769;49.864;8.656;2022-09-13T06:28:29;19.60;99.90
5494;DHT22;2769;49.864;8.656;2022-09-13T06:31:05;20.10;99.90
5494;DHT22;2769;49.864;8.656;2022-09-13T06:33:35;19.90;99.90
5494;DHT22;2769;49.864;8.656;2022-09-13T06:36:07;19.90;99.90
5494;DHT22;2769;49.864;8.656;2022-09-13T06:38:37;19.90;99.90
5494;DHT22;2769;49.864;8.656;2022-09-13T06:41:07;20.10;99.90
5494;DHT22;2769;49.864;8.656;2022-09-13T06:43:36;20.10;99.90
5494;DHT22;2769;49.864;8.656;2022-09-13T06:46:07;19.90;99.90
5494;DHT22;2769;49.864;8.656;2022-09-13T06:48:37;19.90;99.90
5494;DHT22;2769;49.864;8.656;2022-09-13T06:51:09;20.00;99.90
5494;DHT22;2769;49.864;8.656;2022-09-13T06:53:37;20.20;99.90
5494;DHT22;2769;49.864;8.656;2022-09-13T06:56:07;20.30;99.90
5494;DHT22;2769;49.864;8.656;2022-09-13T06:58:37;20.30;99.90
5494;DHT22;2769;49.864;8.656;2022-09-13T07:01:07;20.20;99.90
5494;DHT22;2769;49.864;8.656;2022-09-13T07:03:36;20.00;99.90
5494;DHT22;2769;49.864;8.656;2022-09-13T07:06:16;20.10;99.90
5494;DHT22;2769;49.864;8.656;2022-09-13T07:08:49;19.90;99.90
5494;DHT22;2769;49.864;8.656;2022-09-13T07:11:19;19.90;99.90
5494;DHT22;2769;49.864;8.656;2022-09-13T07:13:49;20.30;99.90
5494;DHT22;2769;49.864;8.656;2022-09-13T07:16:18;19.90;99.90
5494;DHT22;2769;49.864;8.656;2022-09-13T07:18:50;20.10;99.90
5494;DHT22;2769;49.864;8.656;2022-09-13T07:21:20;19.90;99.90
5494;DHT22;2769;49.864;8.656;2022-09-13T07:23:51;19.90;99.90
5494;DHT22;2769;49.864;8.656;2022-09-13T07:26:19;20.00;99.90
5494;DHT22;2769;49.864;8.656;2022-09-13T07:28:49;20.00;99.90
5494;DHT22;2769;49.864;8.656;2022-09-13T07:31:19;19.90;99.90
5494;DHT22;2769;49.864;8.656;2022-09-13T07:33:52;19.70;99.90
5494;DHT22;2769;49.864;8.656;2022-09-13T07:36:23;19.90;99.90
5494;DHT22;2769;49.864;8.656;2022-09-13T07:38:52;19.90;99.90
5494;DHT22;2769;49.864;8.656;2022-09-13T07:41:22;19.90;99.90
5494;DHT22;2769;49.864;8.656;2022-09-13T07:43:50;20.20;99.90
5494;DHT22;2769;49.864;8.656;2022-09-13T07:46:20;19.90;99.90
5494;DHT22;2769;49.864;8.656;2022-09-13T07:48:50;20.00;99.90
5494;DHT22;2769;49.864;8.656;2022-09-13T07:51:20;20.00;99.90
5494;DHT22;2769;49.864;8.656;2022-09-13T07:53:51;20.20;99.90
5494;DHT22;2769;49.864;8.656;2022-09-13T07:56:24;20.10;99.90
5494;DHT22;2769;49.864;8.656;2022-09-13T07:58:53;20.40;99.90
5494;DHT22;2769;49.864;8.656;2022-09-13T08:01:23;20.30;99.90
5494;DHT22;2769;49.864;8.656;2022-09-13T08:03:52;20.30;99.90
5494;DHT22;2769;49.864;8.656;2022-09-13T08:06:21;20.20;99.90
5494;DHT22;2769;49.864;8.656;2022-09-13T08:08:51;20.10;99.90
5494;DHT22;2769;49.864;8.656;2022-09-13T08:11:21;20.30;99.90
5494;DHT22;2769;49.864;8.656;2022-09-13T08:13:50;20.50;99.90
5494;DHT22;2769;49.864;8.656;2022-09-13T08:16:21;20.70;99.90
5494;DHT22;2769;49.864;8.656;2022-09-13T08:18:50;20.90;99.90
5494;DHT22;2769;49.864;8.656;2022-09-13T08:21:19;21.10;99.90
5494;DHT22;2769;49.864;8.656;2022-09-13T08:23:48;21.20;99.90
5494;DHT22;2769;49.864;8.656;2022-09-13T08:26:17;21.50;99.90
5494;DHT22;2769;49.864;8.656;2022-09-13T08:28:45;21.50;99.90
5494;DHT22;2769;49.864;8.656;2022-09-13T08:31:15;21.50;99.90
5494;DHT22;2769;49.864;8.656;2022-09-13T08:33:46;21.60;99.90
5494;DHT22;2769;49.864;8.656;2022-09-13T08:36:16;21.90;99.90
5494;DHT22;2769;49.864;8.656;2022-09-13T08:38:46;21.70;99.90
5494;DHT22;2769;49.864;8.656;2022-09-13T08:41:42;21.90;99.90
5494;DHT22;2769;49.864;8.656;2022-09-13T08:44:19;22.10;99.90
5494;DHT22;2769;49.864;8.656;2022-09-13T08:46:55;22.30;99.90
5494;DHT22;2769;49.864;8.656;2022-09-13T08:49:28;22.10;99.90
5494;DHT22;2769;49.864;8.656;2022-09-13T08:52:00;22.10;99.90
5494;DHT22;2769;49.864;8.656;2022-09-13T08:54:31;22.20;99.90
5494;DHT22;2769;49.864;8.656;2022-09-13T08:57:07;22.00;99.90
5494;DHT22;2769;49.864;8.656;2022-09-13T08:59:49;21.60;99.90
5494;DHT22;2769;49.864;8.656;2022-09-13T09:02:38;21.70;99.90
5494;DHT22;2769;49.864;8.656;2022-09-13T09:05:14;21.70;99.90
5494;DHT22;2769;49.864;8.656;2022-09-13T09:07:46;21.40;99.90
5494;DHT22;2769;49.864;8.656;2022-09-13T09:10:20;21.30;99.90
5494;DHT22;2769;49.864;8.656;2022-09-13T09:12:51;21.40;99.90
5494;DHT22;2769;49.864;8.656;2022-09-13T09:15:23;21.10;99.90
5494;DHT22;2769;49.864;8.656;2022-09-13T09:17:56;20.80;99.90
5494;DHT22;2769;49.864;8.656;2022-09-13T09:20:29;20.90;99.90
5494;DHT22;2769;49.864;8.656;2022-09-13T09:23:02;21.10;99.90
5494;DHT22;2769;49.864;8.656;2022-09-13T09:25:33;21.30;99.90
5494;DHT22;2769;49.864;8.656;2022-09-13T09:28:11;21.60;99.90
5494;DHT22;2769;49.864;8.656;2022-09-13T09:30:44;21.40;99.90
5494;DHT22;2769;49.864;8.656;2022-09-13T09:33:29;21.40;99.90
5494;DHT22;2769;49.864;8.656;2022-09-13T09:36:07;21.50;99.90
5494;DHT22;2769;49.864;8.656;2022-09-13T09:38:39;21.90;99.90
5494;DHT22;2769;49.864;8.656;2022-09-13T09:41:16;22.10;99.90
5494;DHT22;2769;49.864;8.656;2022-09-13T09:43:49;21.80;99.90
5494;DHT22;2769;49.864;8.656;2022-09-13T09:46:23;21.70;99.90
5494;DHT22;2769;49.864;8.656;2022-09-13T09:48:55;21.70;99.90
5494;DHT22;2769;49.864;8.656;2022-09-13T09:51:25;21.80;99.90
5494;DHT22;2769;49.864;8.656;2022-09-13T09:53:59;21.90;99.90
5494;DHT22;2769;49.864;8.656;2022-09-13T09:56:32;22.20;99.90
5494;DHT22;2769;49.864;8.656;2022-09-13T09:59:02;22.30;99.90
5494;DHT22;2769;49.864;8.656;2022-09-13T10:01:31;22.50;99.90
5494;DHT22;2769;49.864;8.656;2022-09-13T10:04:05;22.60;99.90
5494;DHT22;2769;49.864;8.656;2022-09-13T10:06:34;22.70;99.90
5494;DHT22;2769;49.864;8.656;2022-09-13T10:09:06;22.60;99.90
5494;DHT22;2769;49.864;8.656;2022-09-13T10:11:43;22.40;99.90
5494;DHT22;2769;49.864;8.656;2022-09-13T10:14:37;22.20;99.90
5494;DHT22;2769;49.864;8.656;2022-09-13T10:17:20;22.00;99.90
5494;DHT22;2769;49.864;8.656;2022-09-13T10:19:55;22.00;99.90
5494;DHT22;2769;49.864;8.656;2022-09-13T10:22:25;21.90;99.90
5494;DHT22;2769;49.864;8.656;2022-09-13T10:24:53;22.10;99.90
5494;DHT22;2769;49.864;8.656;2022-09-13T10:27:29;22.20;99.90
5494;DHT22;2769;49.864;8.656;2022-09-13T10:30:02;22.30;99.90
5494;DHT22;2769;49.864;8.656;2022-09-13T10:32:31;22.20;99.90
5494;DHT22;2769;49.864;8.656;2022-09-13T10:35:06;22.20;99.90
5494;DHT22;2769;49.864;8.656;2022-09-13T10:37:36;22.20;99.90
5494;DHT22;2769;49.864;8.656;2022-09-13T10:40:16;22.50;99.90
5494;DHT22;2769;49.864;8.656;2022-09-13T10:42:50;22.40;99.90
5494;DHT22;2769;49.864;8.656;2022-09-13T10:45:23;22.50;99.90
5494;DHT22;2769;49.864;8.656;2022-09-13T10:47:54;22.30;99.90
5494;DHT22;2769;49.864;8.656;2022-09-13T10:50:24;22.30;99.90
5494;DHT22;2769;49.864;8.656;2022-09-13T10:52:54;22.20;99.90
5494;DHT22;2769;49.864;8.656;2022-09-13T10:55:34;22.40;99.90
5494;DHT22;2769;49.864;8.656;2022-09-13T10:58:14;22.50;99.90
5494;DHT22;2769;49.864;8.656;2022-09-13T11:01:12;22.30;99.90
5494;DHT22;2769;49.864;8.656;2022-09-13T11:04:16;22.60;99.90
5494;DHT22;2769;49.864;8.656;2022-09-13T11:06:52;23.00;99.90
5494;DHT22;2769;49.864;8.656;2022-09-13T11:09:32;23.10;99.90
5494;DHT22;2769;49.864;8.656;2022-09-13T11:12:09;23.20;99.90
5494;DHT22;2769;49.864;8.656;2022-09-13T11:14:51;23.20;99.90
5494;DHT22;2769;49.864;8.656;2022-09-13T11:17:38;23.20;99.90
5494;DHT22;2769;49.864;8.656;2022-09-13T11:20:17;22.80;99.90
5494;DHT22;2769;49.864;8.656;2022-09-13T11:25:50;22.70;99.90
5494;DHT22;2769;49.864;8.656;2022-09-13T11:28:27;23.10;99.90
5494;DHT22;2769;49.864;8.656;2022-09-13T11:31:08;22.80;99.90
5494;DHT22;2769;49.864;8.656;2022-09-13T11:33:49;22.90;99.90
5494;DHT22;2769;49.864;8.656;2022-09-13T11:36:37;22.90;99.90
5494;DHT22;2769;49.864;8.656;2022-09-13T11:39:17;23.00;99.90
5494;DHT22;2769;49.864;8.656;2022-09-13T11:41:56;23.00;99.90
5494;DHT22;2769;49.864;8.656;2022-09-13T11:44:51;23.30;99.90
5494;DHT22;2769;49.864;8.656;2022-09-13T11:47:32;23.50;99.90
5494;DHT22;2769;49.864;8.656;2022-09-13T11:50:16;23.50;99.90
5494;DHT22;2769;49.864;8.656;2022-09-13T11:52:54;23.60;99.90
5494;DHT22;2769;49.864;8.656;2022-09-13T11:55:29;23.70;99.90
5494;DHT22;2769;49.864;8.656;2022-09-13T11:58:00;23.90;99.90
5494;DHT22;2769;49.864;8.656;2022-09-13T12:00:33;23.70;99.90
5494;DHT22;2769;49.864;8.656;2022-09-13T12:03:11;23.40;99.90
5494;DHT22;2769;49.864;8.656;2022-09-13T12:05:46;23.50;99.90
5494;DHT22;2769;49.864;8.656;2022-09-13T12:08:18;23.60;99.90
5494;DHT22;2769;49.864;8.656;2022-09-13T12:10:50;23.70;99.90
5494;DHT22;2769;49.864;8.656;2022-09-13T12:13:22;23.80;99.90
5494;DHT22;2769;49.864;8.656;2022-09-13T12:15:54;24.00;99.90
5494;DHT22;2769;49.864;8.656;2022-09-13T12:18:27;24.20;99.90
5494;DHT22;2769;49.864;8.656;2022-09-13T12:21:03;24.40;99.90
5494;DHT22;2769;49.864;8.656;2022-09-13T12:23:36;24.40;99.90
5494;DHT22;2769;49.864;8.656;2022-09-13T12:26:08;24.60;99.90
5494;DHT22;2769;49.864;8.656;2022-09-13T12:28:41;24.80;99.90
5494;DHT22;2769;49.864;8.656;2022-09-13T12:31:13;24.90;99.90
5494;DHT22;2769;49.864;8.656;2022-09-13T12:33:46;24.40;99.90
5494;DHT22;2769;49.864;8.656;2022-09-13T12:36:39;24.40;99.90
5494;DHT22;2769;49.864;8.656;2022-09-13T12:39:33;24.40;99.90
5494;DHT22;2769;49.864;8.656;2022-09-13T12:45:11;24.50;99.90
5494;DHT22;2769;49.864;8.656;2022-09-13T12:47:53;24.40;99.90
5494;DHT22;2769;49.864;8.656;2022-09-13T12:50:44;24.20;99.90
5494;DHT22;2769;49.864;8.656;2022-09-13T12:53:33;24.40;99.90
5494;DHT22;2769;49.864;8.656;2022-09-13T12:59:34;24.40;99.90
5494;DHT22;2769;49.864;8.656;2022-09-13T13:02:23;24.40;99.90
5494;DHT22;2769;49.864;8.656;2022-09-13T13:04:55;24.40;99.90
5494;DHT22;2769;49.864;8.656;2022-09-13T13:07:24;24.40;99.90
5494;DHT22;2769;49.864;8.656;2022-09-13T13:09:55;24.40;99.90
5494;DHT22;2769;49.864;8.656;2022-09-13T13:12:27;24.60;99.90
5494;DHT22;2769;49.864;8.656;2022-09-13T13:14:58;24.70;99.90
5494;DHT22;2769;49.864;8.656;2022-09-13T13:17:42;24.60;99.90
5494;DHT22;2769;49.864;8.656;2022-09-13T13:21:03;24.70;99.90
5494;DHT22;2769;49.864;8.656;2022-09-13T13:23:34;25.00;99.90
5494;DHT22;2769;49.864;8.656;2022-09-13T13:26:09;25.10;99.90
5494;DHT22;2769;49.864;8.656;2022-09-13T13:29:10;25.30;99.90
5494;DHT22;2769;49.864;8.656;2022-09-13T13:34:44;25.20;99.90
5494;DHT22;2769;49.864;8.656;2022-09-13T13:37:34;25.00;99.90
5494;DHT22;2769;49.864;8.656;2022-09-13T13:40:12;24.70;99.90
5494;DHT22;2769;49.864;8.656;2022-09-13T13:42:48;24.50;99.90
5494;DHT22;2769;49.864;8.656;2022-09-13T13:45:23;24.60;99.90
5494;DHT22;2769;49.864;8.656;2022-09-13T13:51:11;24.80;99.90
5494;DHT22;2769;49.864;8.656;2022-09-13T13:53:41;24.90;99.90
5494;DHT22;2769;49.864;8.656;2022-09-13T13:56:24;24.90;99.90
5494;DHT22;2769;49.864;8.656;2022-09-13T13:58:59;24.90;99.90
5494;DHT22;2769;49.864;8.656;2022-09-13T14:01:32;24.90;99.90
5494;DHT22;2769;49.864;8.656;2022-09-13T14:07:10;25.30;99.90
5494;DHT22;2769;49.864;8.656;2022-09-13T14:09:54;25.50;99.90
5494;DHT22;2769;49.864;8.656;2022-09-13T14:12:43;25.70;99.90
5494;DHT22;2769;49.864;8.656;2022-09-13T14:15:32;25.80;99.90
5494;DHT22;2769;49.864;8.656;2022-09-13T14:18:21;25.70;99.90
5494;DHT22;2769;49.864;8.656;2022-09-13T14:21:01;25.80;99.90
5494;DHT22;2769;49.864;8.656;2022-09-13T14:23:31;25.90;99.90
5494;DHT22;2769;49.864;8.656;2022-09-13T14:26:00;25.90;99.90
5494;DHT22;2769;49.864;8.656;2022-09-13T14:28:28;25.80;99.90
5494;DHT22;2769;49.864;8.656;2022-09-13T14:31:00;25.50;99.90
5494;DHT22;2769;49.864;8.656;2022-09-13T14:33:29;25.70;99.90
5494;DHT22;2769;49.864;8.656;2022-09-13T14:36:03;25.80;99.90
5494;DHT22;2769;49.864;8.656;2022-09-13T14:38:47;26.00;99.90
5494;DHT22;2769;49.864;8.656;2022-09-13T14:41:30;25.90;99.90
5494;DHT22;2769;49.864;8.656;2022-09-13T14:44:15;25.80;99.90
5494;DHT22;2769;49.864;8.656;2022-09-13T14:46:57;25.80;99.90
5494;DHT22;2769;49.864;8.656;2022-09-13T14:49:31;25.70;99.90
5494;DHT22;2769;49.864;8.656;2022-09-13T14:52:03;25.60;99.90
5494;DHT22;2769;49.864;8.656;2022-09-13T14:54:36;25.60;99.90
5494;DHT22;2769;49.864;8.656;2022-09-13T14:57:08;25.60;99.90
5494;DHT22;2769;49.864;8.656;2022-09-13T14:59:44;25.60;99.90
5494;DHT22;2769;49.864;8.656;2022-09-13T15:02:19;25.50;99.90
5494;DHT22;2769;49.864;8.656;2022-09-13T15:04:49;25.50;99.90
5494;DHT22;2769;49.864;8.656;2022-09-13T15:07:22;25.50;99.90
5494;DHT22;2769;49.864;8.656;2022-09-13T15:10:04;25.50;99.90
5494;DHT22;2769;49.864;8.656;2022-09-13T15:12:34;25.40;99.90
5494;DHT22;2769;49.864;8.656;2022-09-13T15:15:31;25.30;99.90
5494;DHT22;2769;49.864;8.656;2022-09-13T15:18:02;25.30;99.90
5494;DHT22;2769;49.864;8.656;2022-09-13T15:20:44;25.40;99.90
5494;DHT22;2769;49.864;8.656;2022-09-13T15:23:15;25.30;99.90
5494;DHT22;2769;49.864;8.656;2022-09-13T15:25:50;25.20;99.90
5494;DHT22;2769;49.864;8.656;2022-09-13T15:28:25;25.20;99.90
5494;DHT22;2769;49.864;8.656;2022-09-13T15:30:54;25.30;99.90
5494;DHT22;2769;49.864;8.656;2022-09-13T15:33:26;25.20;99.90
5494;DHT22;2769;49.864;8.656;2022-09-13T15:36:26;25.10;99.90
5494;DHT22;2769;49.864;8.656;2022-09-13T15:39:02;25.00;99.90
5494;DHT22;2769;49.864;8.656;2022-09-13T15:41:33;24.90;99.90
5494;DHT22;2769;49.864;8.656;2022-09-13T15:44:02;24.80;99.90
5494;DHT22;2769;49.864;8.656;2022-09-13T15:46:31;24.90;99.90
5494;DHT22;2769;49.864;8.656;2022-09-13T15:49:04;25.00;99.90
5494;DHT22;2769;49.864;8.656;2022-09-13T15:51:32;24.90;99.90
5494;DHT22;2769;49.864;8.656;2022-09-13T15:54:10;24.70;99.90
5494;DHT22;2769;49.864;8.656;2022-09-13T15:56:43;24.60;99.90
5494;DHT22;2769;49.864;8.656;2022-09-13T15:59:12;24.60;99.90
5494;DHT22;2769;49.864;8.656;2022-09-13T16:01:43;24.60;99.90
5494;DHT22;2769;49.864;8.656;2022-09-13T16:04:13;24.60;99.90
5494;DHT22;2769;49.864;8.656;2022-09-13T16:06:42;24.60;99.90
5494;DHT22;2769;49.864;8.656;2022-09-13T16:09:16;24.50;99.90
5494;DHT22;2769;49.864;8.656;2022-09-13T16:11:45;24.50;99.90
5494;DHT22;2769;49.864;8.656;2022-09-13T16:14:14;24.40;99.90
5494;DHT22;2769;49.864;8.656;2022-09-13T16:16:43;24.40;99.90
5494;DHT22;2769;49.864;8.656;2022-09-13T16:19:15;24.40;99.90
5494;DHT22;2769;49.864;8.656;2022-09-13T16:21:43;24.40;99.90
5494;DHT22;2769;49.864;8.656;2022-09-13T16:24:12;24.40;99.90
5494;DHT22;2769;49.864;8.656;2022-09-13T16:26:40;24.30;99.90
5494;DHT22;2769;49.864;8.656;2022-09-13T16:29:09;24.30;99.90
5494;DHT22;2769;49.864;8.656;2022-09-13T16:31:38;24.20;99.90
5494;DHT22;2769;49.864;8.656;2022-09-13T16:34:07;24.30;99.90
5494;DHT22;2769;49.864;8.656;2022-09-13T16:36:36;24.20;99.90
5494;DHT22;2769;49.864;8.656;2022-09-13T16:39:04;24.20;99.90
5494;DHT22;2769;49.864;8.656;2022-09-13T16:41:32;24.10;99.90
5494;DHT22;2769;49.864;8.656;2022-09-13T16:44:01;24.10;99.90
5494;DHT22;2769;49.864;8.656;2022-09-13T16:46:30;24.10;99.90
5494;DHT22;2769;49.864;8.656;2022-09-13T16:48:59;24.00;99.90
5494;DHT22;2769;49.864;8.656;2022-09-13T16:51:27;23.90;99.90
5494;DHT22;2769;49.864;8.656;2022-09-13T16:53:56;24.00;99.90
5494;DHT22;2769;49.864;8.656;2022-09-13T16:56:25;23.90;99.90
5494;DHT22;2769;49.864;8.656;2022-09-13T16:58:53;22.90;99.90
5494;DHT22;2769;49.864;8.656;2022-09-13T17:01:24;24.00;99.90
5494;DHT22;2769;49.864;8.656;2022-09-13T17:03:53;23.90;99.90
5494;DHT22;2769;49.864;8.656;2022-09-13T17:06:22;23.80;99.90